Time;durP1;ratioP1;P1;durP2;ratioP2;P2;SDS_P1;SDS_P2;PMS_P1;PMS_P2;Temp;Humidity;BMP_temperature;BMP_pressure;BME280_temperature;BME280_humidity;BME280_pressure;Samples;Min_cycle;Max_cycle;Signal;HPM_P1;HPM_P2
2024/01/16 00:00:08;;;;;;;0.60;0.60;;;3.00;99.90;;;;;;7391134;19;20135;-78
2024/01/16 00:02:34;;;;;;;0.40;0.40;;;3.00;99.90;;;;;;7393611;19;20214;-78
2024/01/16 00:05:00;;;;;;;0.70;0.70;;;3.00;99.90;;;;;;7389405;19;20178;-77
2024/01/16 00:07:26;;;;;;;0.70;0.70;;;2.90;99.90;;;;;;7390889;19;20584;-78
2024/01/16 00:09:53;;;;;;;0.40;0.40;;;2.70;99.90;;;;;;7390667;19;20139;-77
2024/01/16 00:12:19;;;;;;;1.20;1.10;;;2.80;99.90;;;;;;7393661;19;20139;-79
2024/01/16 00:14:45;;;;;;;0.77;0.67;;;2.80;99.90;;;;;;7391024;19;20588;-77
2024/01/16 00:17:11;;;;;;;0.57;0.57;;;2.80;99.90;;;;;;7390143;19;20145;-77
2024/01/16 00:19:37;;;;;;;0.30;0.30;;;2.90;99.90;;;;;;7391951;19;20139;-76
2024/01/16 00:22:04;;;;;;;1.63;1.03;;;3.00;99.90;;;;;;7389237;19;20130;-78
2024/01/16 00:24:30;;;;;;;0.50;0.50;;;2.90;99.90;;;;;;7390472;19;20134;-78
2024/01/16 00:26:56;;;;;;;0.30;0.30;;;2.90;99.90;;;;;;7391849;19;20146;-78
2024/01/16 00:29:23;;;;;;;0.70;0.53;;;2.90;99.90;;;;;;7390424;19;20139;-78
2024/01/16 00:31:49;;;;;;;0.77;0.77;;;2.90;99.90;;;;;;7390882;19;20161;-78
2024/01/16 00:34:15;;;;;;;0.70;0.70;;;2.90;99.90;;;;;;7392504;19;20601;-78
2024/01/16 00:36:40;;;;;;;0.40;0.40;;;2.80;99.90;;;;;;7390688;19;20150;-78
2024/01/16 00:39:07;;;;;;;1.07;0.67;;;2.70;99.90;;;;;;7389588;19;20144;-78
2024/01/16 00:41:33;;;;;;;0.73;0.73;;;2.80;99.90;;;;;;7393724;19;20145;-78
2024/01/16 00:43:58;;;;;;;0.57;0.57;;;2.80;99.90;;;;;;7391192;19;20182;-78
2024/01/16 00:46:24;;;;;;;0.70;0.53;;;2.80;99.90;;;;;;7390542;19;20133;-78
2024/01/16 00:48:50;;;;;;;0.63;0.50;;;2.80;99.90;;;;;;7388628;19;20206;-77
2024/01/16 00:51:15;;;;;;;0.30;0.30;;;2.80;99.90;;;;;;7390851;19;20142;-79
2024/01/16 00:53:42;;;;;;;0.53;0.30;;;2.90;99.90;;;;;;7391778;19;20130;-77
2024/01/16 00:56:08;;;;;;;0.50;0.50;;;2.80;99.90;;;;;;7389754;19;20135;-77
2024/01/16 00:58:35;;;;;;;0.37;0.30;;;2.70;99.90;;;;;;7391165;19;20902;-79
2024/01/16 01:01:01;;;;;;;0.60;0.40;;;2.60;99.90;;;;;;7389525;19;20138;-78
2024/01/16 01:03:26;;;;;;;0.23;0.23;;;2.80;99.90;;;;;;7390364;19;20151;-77
2024/01/16 01:05:52;;;;;;;1.37;0.43;;;2.80;99.90;;;;;;7389601;19;20148;-77
2024/01/16 01:08:18;;;;;;;0.53;0.53;;;2.60;99.90;;;;;;7385838;19;20580;-79
2024/01/16 01:10:44;;;;;;;0.93;0.77;;;2.90;99.90;;;;;;7389583;19;20164;-78
2024/01/16 01:13:10;;;;;;;0.97;0.80;;;3.00;99.90;;;;;;7390899;19;20616;-78
2024/01/16 01:15:36;;;;;;;0.47;0.47;;;2.80;99.90;;;;;;7387863;19;20135;-79
2024/01/16 01:18:01;;;;;;;0.20;0.20;;;2.80;99.90;;;;;;7389273;19;20135;-77
2024/01/16 01:20:27;;;;;;;0.30;0.30;;;2.80;99.90;;;;;;7391523;19;20135;-79
2024/01/16 01:22:53;;;;;;;0.43;0.43;;;2.80;99.90;;;;;;7389306;19;20475;-77
2024/01/16 01:25:19;;;;;;;0.60;0.30;;;2.90;99.90;;;;;;7389374;19;20134;-78
2024/01/16 01:27:44;;;;;;;0.60;0.53;;;2.80;99.90;;;;;;7388246;19;20210;-79
2024/01/16 01:30:10;;;;;;;0.63;0.63;;;2.70;99.90;;;;;;7388783;19;20194;-78
2024/01/16 01:32:37;;;;;;;0.83;0.70;;;2.80;99.90;;;;;;7390651;19;20168;-77
2024/01/16 01:35:03;;;;;;;0.60;0.60;;;2.80;99.90;;;;;;7397811;19;20131;-78
2024/01/16 01:37:29;;;;;;;0.77;0.70;;;2.90;99.90;;;;;;7395513;19;20178;-77
2024/01/16 01:39:55;;;;;;;0.30;0.30;;;2.60;99.90;;;;;;7398111;19;20134;-78
2024/01/16 01:42:21;;;;;;;0.50;0.37;;;2.70;99.90;;;;;;7395281;19;20633;-78
2024/01/16 01:44:47;;;;;;;0.30;0.30;;;2.90;99.90;;;;;;7397921;19;20130;-79
2024/01/16 01:47:13;;;;;;;0.50;0.40;;;2.90;99.90;;;;;;7397008;19;20748;-79
2024/01/16 01:49:40;;;;;;;1.23;1.10;;;2.90;99.90;;;;;;7393651;19;20169;-78
2024/01/16 01:52:07;;;;;;;0.40;0.40;;;2.90;99.90;;;;;;7394954;19;20155;-78
2024/01/16 01:54:36;;;;;;;1.27;0.97;;;2.80;99.90;;;;;;7395172;19;20153;-79
2024/01/16 01:57:03;;;;;;;0.57;0.57;;;2.90;99.90;;;;;;7393992;19;20153;-79
2024/01/16 01:59:30;;;;;;;0.27;0.27;;;2.90;99.90;;;;;;7393412;19;20149;-78
2024/01/16 02:01:56;;;;;;;0.77;0.53;;;2.90;99.90;;;;;;7394875;19;20143;-78
2024/01/16 02:04:24;;;;;;;0.63;0.63;;;2.80;99.90;;;;;;7394790;19;20460;-78
2024/01/16 02:06:50;;;;;;;0.60;0.50;;;2.90;99.90;;;;;;7396902;19;20143;-78
2024/01/16 02:09:16;;;;;;;0.30;0.30;;;2.90;99.90;;;;;;7393900;19;20169;-78
2024/01/16 02:11:42;;;;;;;0.50;0.50;;;3.00;99.90;;;;;;7395612;19;20620;-79
2024/01/16 02:14:08;;;;;;;0.67;0.60;;;2.90;99.90;;;;;;7394412;19;20544;-78
2024/01/16 02:16:39;;;;;;;0.93;0.40;;;3.00;99.90;;;;;;7392967;19;20156;-78
2024/01/16 02:19:06;;;;;;;0.63;0.63;;;2.80;99.90;;;;;;7395503;19;20143;-78
2024/01/16 02:21:43;;;;;;;0.20;0.20;;;2.80;99.90;;;;;;7396580;19;20473;-77
2024/01/16 02:24:11;;;;;;;1.20;0.60;;;2.80;99.90;;;;;;7394201;19;20134;-78
2024/01/16 02:26:37;;;;;;;0.30;0.30;;;2.70;99.90;;;;;;7394453;19;20151;-78
2024/01/16 02:29:06;;;;;;;0.63;0.37;;;2.70;99.90;;;;;;7393969;19;20235;-77
2024/01/16 02:31:33;;;;;;;0.40;0.40;;;2.70;99.90;;;;;;7396022;19;20549;-78
2024/01/16 02:33:59;;;;;;;0.80;0.80;;;2.80;99.90;;;;;;7394100;19;20440;-76
2024/01/16 02:36:25;;;;;;;0.40;0.40;;;2.80;99.90;;;;;;7394201;19;20130;-77
2024/01/16 02:38:51;;;;;;;0.37;0.30;;;2.80;99.90;;;;;;7393513;19;20147;-78
2024/01/16 02:41:18;;;;;;;0.33;0.33;;;2.70;99.90;;;;;;7394613;19;20863;-79
2024/01/16 02:43:44;;;;;;;0.30;0.30;;;2.70;99.90;;;;;;7393004;19;20626;-77
2024/01/16 02:46:10;;;;;;;0.90;0.73;;;2.70;99.90;;;;;;7393083;19;20163;-77
2024/01/16 02:48:36;;;;;;;1.53;0.70;;;2.70;99.90;;;;;;7392836;19;20517;-78
2024/01/16 02:51:03;;;;;;;0.50;0.50;;;2.70;99.90;;;;;;7390127;19;20631;-77
2024/01/16 02:53:29;;;;;;;0.40;0.40;;;2.70;99.90;;;;;;7396233;19;20142;-77
2024/01/16 02:55:58;;;;;;;0.30;0.30;;;2.80;99.90;;;;;;7392358;19;20142;-76
2024/01/16 02:58:24;;;;;;;1.07;0.63;;;2.70;99.90;;;;;;7396567;19;20146;-77
2024/01/16 03:00:53;;;;;;;0.50;0.50;;;2.70;99.90;;;;;;7392773;19;20158;-77
2024/01/16 03:03:19;;;;;;;1.13;0.50;;;2.70;99.90;;;;;;7393698;19;20179;-76
2024/01/16 03:05:45;;;;;;;0.43;0.43;;;2.70;99.90;;;;;;7390968;19;20741;-77
2024/01/16 03:08:10;;;;;;;0.40;0.40;;;2.60;99.90;;;;;;7394557;19;20404;-77
2024/01/16 03:10:36;;;;;;;0.47;0.47;;;2.70;99.90;;;;;;7392194;19;20151;-78
2024/01/16 03:13:02;;;;;;;0.73;0.70;;;2.70;99.90;;;;;;7394653;19;20150;-78
2024/01/16 03:15:30;;;;;;;1.23;1.13;;;2.70;99.90;;;;;;7392195;19;20224;-77
2024/01/16 03:17:57;;;;;;;0.30;0.30;;;2.60;99.90;;;;;;7394321;19;20150;-77
2024/01/16 03:20:23;;;;;;;0.27;0.27;;;2.50;99.90;;;;;;7392230;19;20126;-77
2024/01/16 03:22:49;;;;;;;0.30;0.30;;;2.50;99.90;;;;;;7390990;19;20567;-77
2024/01/16 03:25:16;;;;;;;2.33;0.50;;;2.50;99.90;;;;;;7394044;19;20160;-77
2024/01/16 03:27:42;;;;;;;0.20;0.20;;;2.60;99.90;;;;;;7393469;19;20572;-76
2024/01/16 03:30:08;;;;;;;0.40;0.33;;;2.50;99.90;;;;;;7392159;19;20177;-78
2024/01/16 03:32:36;;;;;;;0.87;0.80;;;2.50;99.90;;;;;;7390883;19;20444;-77
2024/01/16 03:35:01;;;;;;;0.23;0.23;;;2.40;99.90;;;;;;7391775;19;20500;-78
2024/01/16 03:37:27;;;;;;;0.40;0.40;;;2.30;99.90;;;;;;7392098;19;20134;-78
2024/01/16 03:39:54;;;;;;;0.93;0.87;;;2.30;99.90;;;;;;7391352;19;20154;-78
2024/01/16 03:42:20;;;;;;;0.83;0.83;;;2.20;99.90;;;;;;7389084;19;20230;-77
2024/01/16 03:44:46;;;;;;;0.50;0.50;;;2.40;99.90;;;;;;7391795;19;20178;-77
2024/01/16 03:47:12;;;;;;;3.33;0.90;;;2.40;99.90;;;;;;7391051;19;20143;-78
2024/01/16 03:49:38;;;;;;;0.50;0.50;;;2.50;99.90;;;;;;7388956;19;20895;-78
2024/01/16 03:52:04;;;;;;;0.47;0.47;;;2.50;99.90;;;;;;7390622;19;20159;-78
2024/01/16 03:54:30;;;;;;;1.03;0.93;;;2.50;99.90;;;;;;7391603;19;20138;-77
2024/01/16 03:56:56;;;;;;;0.83;0.60;;;2.50;99.90;;;;;;7388341;19;20146;-78
2024/01/16 03:59:23;;;;;;;1.63;0.33;;;2.40;99.90;;;;;;7392728;19;20198;-78
2024/01/16 04:01:49;;;;;;;1.70;0.90;;;2.40;99.90;;;;;;7392117;19;20138;-78
2024/01/16 04:04:16;;;;;;;0.30;0.30;;;2.40;99.90;;;;;;7393171;19;20564;-78
2024/01/16 04:06:42;;;;;;;0.33;0.33;;;2.10;99.90;;;;;;7390506;19;20147;-77
2024/01/16 04:09:09;;;;;;;0.30;0.30;;;2.20;99.90;;;;;;7390341;19;20154;-78
2024/01/16 04:11:35;;;;;;;0.30;0.30;;;2.30;99.90;;;;;;7390456;19;20134;-78
2024/01/16 04:14:01;;;;;;;0.50;0.50;;;2.30;99.90;;;;;;7392518;19;20178;-77
2024/01/16 04:16:27;;;;;;;0.67;0.67;;;2.10;99.90;;;;;;7389971;19;20149;-78
2024/01/16 04:18:53;;;;;;;1.33;1.23;;;2.00;99.90;;;;;;7390845;19;20150;-77
2024/01/16 04:21:19;;;;;;;0.50;0.50;;;2.20;99.90;;;;;;7389933;19;20210;-78
2024/01/16 04:23:45;;;;;;;0.67;0.67;;;2.30;99.90;;;;;;7390413;19;20209;-77
2024/01/16 04:26:11;;;;;;;1.40;0.50;;;2.20;99.90;;;;;;7391663;19;20135;-79
2024/01/16 04:28:37;;;;;;;0.53;0.50;;;2.30;99.90;;;;;;7392171;19;20139;-77
2024/01/16 04:31:03;;;;;;;0.50;0.40;;;2.30;99.90;;;;;;7391426;19;20475;-77
2024/01/16 04:33:29;;;;;;;0.20;0.20;;;2.30;99.90;;;;;;7390669;19;20158;-77
2024/01/16 04:35:55;;;;;;;0.30;0.30;;;2.30;99.90;;;;;;7391006;19;20139;-78
2024/01/16 04:38:21;;;;;;;0.37;0.37;;;2.30;99.90;;;;;;7390758;19;20213;-77
2024/01/16 04:40:47;;;;;;;0.90;0.90;;;2.30;99.90;;;;;;7390889;19;20878;-77
2024/01/16 04:43:13;;;;;;;0.20;0.20;;;2.30;99.90;;;;;;7388610;19;20202;-77
2024/01/16 04:45:39;;;;;;;0.57;0.40;;;2.30;99.90;;;;;;7393161;19;20130;-77
2024/01/16 04:48:04;;;;;;;1.73;0.73;;;2.30;99.90;;;;;;7391615;19;20198;-77
2024/01/16 04:50:33;;;;;;;0.60;0.60;;;2.30;99.90;;;;;;7388222;19;20178;-77
2024/01/16 04:53:02;;;;;;;1.10;0.77;;;2.30;99.90;;;;;;7391735;19;20139;-78
2024/01/16 04:55:31;;;;;;;0.30;0.30;;;2.10;99.90;;;;;;7391243;19;20206;-77
2024/01/16 04:57:57;;;;;;;0.30;0.30;;;2.20;99.90;;;;;;7388454;19;20151;-76
2024/01/16 05:00:23;;;;;;;0.70;0.57;;;2.20;99.90;;;;;;7390445;19;20139;-77
2024/01/16 05:02:51;;;;;;;0.20;0.20;;;2.10;99.90;;;;;;7388364;19;20220;-78
2024/01/16 05:05:17;;;;;;;2.40;1.30;;;2.10;99.90;;;;;;7390567;19;20848;-78
2024/01/16 05:07:43;;;;;;;0.63;0.63;;;2.10;99.90;;;;;;7393850;19;20138;-78
2024/01/16 05:10:15;;;;;;;0.53;0.50;;;2.10;99.90;;;;;;7394646;19;20167;-77
2024/01/16 05:12:41;;;;;;;0.37;0.37;;;2.10;99.90;;;;;;7395203;19;20171;-77
2024/01/16 05:15:08;;;;;;;0.50;0.43;;;2.10;99.90;;;;;;7393307;19;20150;-78
2024/01/16 05:17:34;;;;;;;0.60;0.60;;;2.10;99.90;;;;;;7397599;19;20155;-77
2024/01/16 05:20:03;;;;;;;0.40;0.40;;;2.00;99.90;;;;;;7395674;19;20154;-77
2024/01/16 05:22:29;;;;;;;0.50;0.50;;;2.10;99.90;;;;;;7395987;19;20195;-77
2024/01/16 05:24:55;;;;;;;0.30;0.30;;;2.10;99.90;;;;;;7395151;19;20753;-77
2024/01/16 05:27:20;;;;;;;0.40;0.40;;;2.10;99.90;;;;;;7395640;19;20155;-77
2024/01/16 05:29:46;;;;;;;0.30;0.30;;;2.00;99.90;;;;;;7394276;19;20202;-76
2024/01/16 05:32:13;;;;;;;0.93;0.93;;;1.90;99.90;;;;;;7395202;19;20201;-78
2024/01/16 05:34:39;;;;;;;0.40;0.40;;;2.00;99.90;;;;;;7396063;19;20141;-77
2024/01/16 05:37:05;;;;;;;0.30;0.30;;;1.90;99.90;;;;;;7390056;19;20173;-76
2024/01/16 05:39:30;;;;;;;0.90;0.70;;;1.90;99.90;;;;;;7396153;19;21224;-77
2024/01/16 05:41:56;;;;;;;2.53;0.43;;;2.00;99.90;;;;;;7393757;19;21360;-77
2024/01/16 05:44:22;;;;;;;0.83;0.40;;;1.90;99.90;;;;;;7394775;19;20175;-77
2024/01/16 05:46:50;;;;;;;0.83;0.83;;;2.00;99.90;;;;;;7393688;19;20615;-77
2024/01/16 05:49:16;;;;;;;1.33;0.80;;;2.00;99.90;;;;;;7392440;19;20158;-76
2024/01/16 05:51:42;;;;;;;1.60;0.50;;;2.00;99.90;;;;;;7394019;19;20944;-77
2024/01/16 05:54:08;;;;;;;0.47;0.47;;;2.00;99.90;;;;;;7393957;19;20509;-76
2024/01/16 05:56:34;;;;;;;0.60;0.60;;;2.00;99.90;;;;;;7391232;19;20164;-77
2024/01/16 05:59:00;;;;;;;0.80;0.80;;;2.00;99.90;;;;;;7395911;19;20154;-77
2024/01/16 06:01:27;;;;;;;0.30;0.30;;;2.00;99.90;;;;;;7392265;19;20151;-77
2024/01/16 06:03:53;;;;;;;0.97;0.67;;;2.00;99.90;;;;;;7392416;19;20181;-76
2024/01/16 06:06:19;;;;;;;0.20;0.20;;;2.00;99.90;;;;;;7392325;19;20187;-77
2024/01/16 06:08:45;;;;;;;0.33;0.33;;;1.90;99.90;;;;;;7392244;19;20142;-78
2024/01/16 06:11:11;;;;;;;0.30;0.30;;;1.90;99.90;;;;;;7392050;19;20518;-77
2024/01/16 06:13:37;;;;;;;0.43;0.43;;;2.00;99.90;;;;;;7393189;19;20566;-77
2024/01/16 06:16:03;;;;;;;0.50;0.50;;;2.00;99.90;;;;;;7391839;19;20174;-78
2024/01/16 06:18:28;;;;;;;0.20;0.20;;;1.90;99.90;;;;;;7394560;19;20141;-78
2024/01/16 06:20:54;;;;;;;0.30;0.30;;;1.90;99.90;;;;;;7390247;19;20614;-77
2024/01/16 06:23:20;;;;;;;0.60;0.60;;;1.80;99.90;;;;;;7391520;19;20143;-77
2024/01/16 06:25:46;;;;;;;0.40;0.40;;;1.90;99.90;;;;;;7392036;19;20146;-77
2024/01/16 06:28:11;;;;;;;0.93;0.93;;;1.80;99.90;;;;;;7394646;19;20572;-76
2024/01/16 06:30:37;;;;;;;0.47;0.47;;;1.60;99.90;;;;;;7390547;19;20147;-76
2024/01/16 06:33:03;;;;;;;0.67;0.67;;;1.50;99.90;;;;;;7390757;19;20142;-77
2024/01/16 06:35:29;;;;;;;0.40;0.40;;;1.60;99.90;;;;;;7395174;19;20150;-77
2024/01/16 06:37:54;;;;;;;0.40;0.40;;;1.70;99.90;;;;;;7391779;19;20138;-76
2024/01/16 06:40:20;;;;;;;0.63;0.63;;;1.70;99.90;;;;;;7392695;19;20147;-79
2024/01/16 06:42:46;;;;;;;0.37;0.37;;;1.80;99.90;;;;;;7392910;19;20123;-79
2024/01/16 06:45:15;;;;;;;0.83;0.83;;;1.70;99.90;;;;;;7393672;19;20135;-77
2024/01/16 06:47:42;;;;;;;0.23;0.23;;;1.70;99.90;;;;;;7392435;19;20143;-77
2024/01/16 06:50:08;;;;;;;0.30;0.30;;;1.40;99.90;;;;;;7393626;19;20162;-81
2024/01/16 06:52:34;;;;;;;0.30;0.30;;;1.50;99.90;;;;;;7394962;19;20145;-80
2024/01/16 06:55:01;;;;;;;0.27;0.27;;;1.80;99.90;;;;;;7393766;19;20584;-82
2024/01/16 06:57:27;;;;;;;1.13;0.50;;;1.90;99.90;;;;;;7393510;19;20850;-80
2024/01/16 06:59:53;;;;;;;0.37;0.37;;;1.90;99.90;;;;;;7393060;19;20215;-81
2024/01/16 07:02:19;;;;;;;0.40;0.40;;;1.90;99.90;;;;;;7392938;19;20135;-79
2024/01/16 07:04:44;;;;;;;0.33;0.33;;;1.90;99.90;;;;;;7392207;19;20209;-79
2024/01/16 07:07:10;;;;;;;1.27;1.17;;;1.90;99.90;;;;;;7394082;19;20537;-80
2024/01/16 07:09:36;;;;;;;0.30;0.30;;;1.90;99.90;;;;;;7391499;19;20213;-81
2024/01/16 07:12:03;;;;;;;1.23;1.13;;;1.80;99.90;;;;;;7392684;19;20158;-84
2024/01/16 07:14:29;;;;;;;0.70;0.70;;;1.80;99.90;;;;;;7390974;19;20131;-82
2024/01/16 07:16:55;;;;;;;0.73;0.73;;;1.90;99.90;;;;;;7394287;19;20149;-81
2024/01/16 07:19:20;;;;;;;0.57;0.57;;;1.90;99.90;;;;;;7390593;19;20150;-81
2024/01/16 07:21:46;;;;;;;0.23;0.23;;;2.00;99.90;;;;;;7394572;19;20161;-82
2024/01/16 07:24:13;;;;;;;0.70;0.70;;;1.90;99.90;;;;;;7391512;19;20162;-82
2024/01/16 07:26:41;;;;;;;0.63;0.50;;;1.70;99.90;;;;;;7391887;19;20145;-81
2024/01/16 07:29:10;;;;;;;0.53;0.53;;;1.80;99.90;;;;;;7390975;19;20131;-82
2024/01/16 07:31:36;;;;;;;0.10;0.10;;;1.90;99.90;;;;;;7394310;19;20157;-82
2024/01/16 07:34:01;;;;;;;0.20;0.20;;;1.80;99.90;;;;;;7392646;19;20595;-81
2024/01/16 07:36:27;;;;;;;2.27;1.10;;;1.80;99.90;;;;;;7391128;19;20145;-80
2024/01/16 07:38:53;;;;;;;0.20;0.20;;;1.90;99.90;;;;;;7393879;19;20142;-82
2024/01/16 07:41:18;;;;;;;0.40;0.40;;;1.90;99.90;;;;;;7393153;19;20160;-81
2024/01/16 07:43:44;;;;;;;0.50;0.43;;;1.80;99.90;;;;;;7395163;19;20138;-82
2024/01/16 07:46:11;;;;;;;0.30;0.30;;;1.80;99.90;;;;;;7397999;19;20135;-79
2024/01/16 07:48:37;;;;;;;0.57;0.57;;;1.90;99.90;;;;;;7393438;19;20515;-80
2024/01/16 07:51:03;;;;;;;0.50;0.30;;;1.80;99.90;;;;;;7388710;19;20616;-81
2024/01/16 07:53:29;;;;;;;1.70;0.93;;;1.90;99.90;;;;;;7391744;19;20134;-83
2024/01/16 07:55:54;;;;;;;0.40;0.40;;;1.70;99.90;;;;;;7392756;19;20134;-83
2024/01/16 07:58:21;;;;;;;0.40;0.37;;;1.70;99.90;;;;;;7401824;19;20619;-84
2024/01/16 08:00:46;;;;;;;0.30;0.30;;;1.90;99.90;;;;;;7394224;19;20246;-82
2024/01/16 08:03:14;;;;;;;0.33;0.33;;;2.00;99.90;;;;;;7392254;19;20663;-82
2024/01/16 08:05:40;;;;;;;0.20;0.20;;;2.00;99.90;;;;;;7389191;19;20161;-84
2024/01/16 08:08:09;;;;;;;0.40;0.40;;;2.10;99.90;;;;;;7393477;19;20496;-80
2024/01/16 08:10:35;;;;;;;0.23;0.23;;;2.10;99.90;;;;;;7390198;19;20632;-82
2024/01/16 08:13:01;;;;;;;0.20;0.20;;;2.00;99.90;;;;;;7390325;19;20135;-79
2024/01/16 08:15:27;;;;;;;0.70;0.50;;;2.00;99.90;;;;;;7390108;19;20524;-80
2024/01/16 08:17:52;;;;;;;0.30;0.30;;;2.10;99.90;;;;;;7392539;19;20194;-81
2024/01/16 08:20:18;;;;;;;1.53;0.93;;;2.00;99.90;;;;;;7392275;19;20582;-82
2024/01/16 08:22:44;;;;;;;0.30;0.30;;;2.10;99.90;;;;;;7390882;19;20138;-82
2024/01/16 08:25:09;;;;;;;0.57;0.50;;;2.10;99.90;;;;;;7391463;19;20513;-83
2024/01/16 08:27:38;;;;;;;0.30;0.30;;;2.20;99.90;;;;;;7391327;19;20150;-82
2024/01/16 08:30:07;;;;;;;0.60;0.60;;;2.30;99.90;;;;;;7392132;19;20150;-81
2024/01/16 08:32:32;;;;;;;0.60;0.60;;;2.20;99.90;;;;;;7392688;19;20138;-82
2024/01/16 08:34:58;;;;;;;0.40;0.40;;;2.30;99.90;;;;;;7390117;19;20139;-81
2024/01/16 08:37:25;;;;;;;0.20;0.20;;;2.30;99.90;;;;;;7387429;19;20154;-81
2024/01/16 08:39:51;;;;;;;0.77;0.30;;;2.30;99.90;;;;;;7390163;19;20145;-82
2024/01/16 08:42:18;;;;;;;0.23;0.23;;;2.40;99.90;;;;;;7393047;19;20138;-82
2024/01/16 08:44:43;;;;;;;0.33;0.33;;;2.40;99.90;;;;;;7397590;19;20157;-83
2024/01/16 08:47:09;;;;;;;0.60;0.50;;;2.40;99.90;;;;;;7398160;19;20154;-82
2024/01/16 08:49:35;;;;;;;0.50;0.50;;;2.50;99.90;;;;;;7396265;19;20170;-80
2024/01/16 08:52:02;;;;;;;0.60;0.60;;;2.50;99.90;;;;;;7397261;19;20767;-84
2024/01/16 08:54:28;;;;;;;0.70;0.70;;;2.60;99.90;;;;;;7399180;19;20186;-79
2024/01/16 08:56:54;;;;;;;0.30;0.30;;;2.60;99.90;;;;;;7395499;19;20550;-80
2024/01/16 08:59:19;;;;;;;1.17;0.50;;;2.60;99.90;;;;;;7396797;19;20150;-78
2024/01/16 09:01:45;;;;;;;0.50;0.50;;;2.50;99.90;;;;;;7396580;19;20145;-78
2024/01/16 09:04:11;;;;;;;0.53;0.53;;;2.60;99.90;;;;;;7395682;19;20162;-78
2024/01/16 09:06:37;;;;;;;0.30;0.30;;;2.50;99.90;;;;;;7397347;19;20139;-79
2024/01/16 09:09:06;;;;;;;0.70;0.70;;;2.50;99.90;;;;;;7395353;19;20147;-81
2024/01/16 09:11:32;;;;;;;0.43;0.40;;;2.50;99.90;;;;;;7399304;19;20139;-81
2024/01/16 09:13:58;;;;;;;0.67;0.67;;;2.60;99.90;;;;;;7396752;19;20154;-80
2024/01/16 09:16:24;;;;;;;0.30;0.30;;;2.70;99.90;;;;;;7402967;19;20123;-81
2024/01/16 09:18:50;;;;;;;0.60;0.50;;;2.80;99.90;;;;;;7402598;19;20146;-82
2024/01/16 09:21:16;;;;;;;0.60;0.60;;;2.80;99.90;;;;;;7397885;19;20971;-80
2024/01/16 09:23:42;;;;;;;0.40;0.40;;;2.80;99.90;;;;;;7406462;19;20146;-77
2024/01/16 09:26:08;;;;;;;0.73;0.40;;;2.80;99.90;;;;;;7398789;19;20154;-80
2024/01/16 09:28:33;;;;;;;0.60;0.60;;;2.80;99.90;;;;;;7398656;19;20495;-79
2024/01/16 09:30:59;;;;;;;0.30;0.30;;;2.80;99.90;;;;;;7397747;19;20154;-77
2024/01/16 09:33:25;;;;;;;0.33;0.33;;;2.90;99.90;;;;;;7391838;19;20150;-78
2024/01/16 09:35:52;;;;;;;1.17;0.80;;;2.90;99.90;;;;;;7394263;19;20707;-79
2024/01/16 09:38:17;;;;;;;0.57;0.57;;;2.90;99.90;;;;;;7397380;19;20150;-77
2024/01/16 09:40:44;;;;;;;0.70;0.70;;;2.90;99.90;;;;;;7393261;19;20537;-80
2024/01/16 09:43:11;;;;;;;0.40;0.40;;;3.00;99.90;;;;;;7397133;19;20134;-80
2024/01/16 09:45:39;;;;;;;0.27;0.27;;;3.10;99.90;;;;;;7394686;19;20499;-80
2024/01/16 09:48:07;;;;;;;0.53;0.53;;;3.00;99.90;;;;;;7394631;19;20135;-78
2024/01/16 09:50:33;;;;;;;1.70;0.90;;;3.00;99.90;;;;;;7394653;19;20180;-79
2024/01/16 09:52:59;;;;;;;1.30;0.90;;;3.10;99.90;;;;;;7395727;19;20150;-79
2024/01/16 09:55:25;;;;;;;0.57;0.57;;;3.10;99.90;;;;;;7396613;19;20479;-78
2024/01/16 09:57:55;;;;;;;0.50;0.50;;;3.20;99.90;;;;;;7394511;19;20142;-76
2024/01/16 10:00:21;;;;;;;0.33;0.27;;;3.20;99.90;;;;;;7396923;19;20167;-79
2024/01/16 10:02:47;;;;;;;0.40;0.40;;;3.20;99.90;;;;;;7394826;19;20139;-78
2024/01/16 10:05:13;;;;;;;0.50;0.50;;;3.30;99.90;;;;;;7393415;19;20173;-79
2024/01/16 10:07:44;;;;;;;0.60;0.60;;;3.40;99.90;;;;;;7396402;19;20679;-78
2024/01/16 10:10:12;;;;;;;0.57;0.57;;;3.60;99.90;;;;;;7396563;19;20700;-79
2024/01/16 10:12:40;;;;;;;1.20;0.80;;;3.60;99.90;;;;;;7395281;19;20149;-79
2024/01/16 10:15:10;;;;;;;0.70;0.70;;;3.50;99.90;;;;;;7395004;19;20160;-80
2024/01/16 10:17:40;;;;;;;0.83;0.83;;;3.60;99.90;;;;;;7391984;19;20168;-81
2024/01/16 10:20:07;;;;;;;0.33;0.33;;;3.60;99.90;;;;;;7394963;19;20630;-79
2024/01/16 10:22:33;;;;;;;0.67;0.67;;;3.70;99.90;;;;;;7401565;19;20600;-80
2024/01/16 10:25:16;;;;;;;0.87;0.83;;;3.80;99.90;;;;;;7396805;19;20154;-79
2024/01/16 10:27:43;;;;;;;0.27;0.27;;;3.90;99.90;;;;;;7393912;19;20587;-79
2024/01/16 10:30:10;;;;;;;0.50;0.50;;;3.90;99.90;;;;;;7395184;19;20551;-79
2024/01/16 10:32:43;;;;;;;0.30;0.30;;;4.00;99.90;;;;;;7392803;19;20126;-79
2024/01/16 10:35:11;;;;;;;0.20;0.20;;;4.00;99.90;;;;;;7393651;19;20456;-78
2024/01/16 10:37:46;;;;;;;0.20;0.20;;;4.20;99.90;;;;;;7392242;19;20147;-80
2024/01/16 10:40:24;;;;;;;0.50;0.50;;;4.20;99.90;;;;;;7391498;19;20856;-79
2024/01/16 10:43:03;;;;;;;0.23;0.23;;;4.10;99.90;;;;;;7395058;19;20134;-80
2024/01/16 10:45:30;;;;;;;0.37;0.20;;;4.20;99.90;;;;;;7396181;19;20850;-80
2024/01/16 10:48:04;;;;;;;0.20;0.20;;;4.30;99.90;;;;;;7395645;19;20735;-81
2024/01/16 10:50:30;;;;;;;0.20;0.20;;;4.40;99.90;;;;;;7391414;19;20158;-82
2024/01/16 10:53:00;;;;;;;0.50;0.50;;;4.60;99.90;;;;;;7393558;19;20154;-83
2024/01/16 10:55:29;;;;;;;0.33;0.33;;;4.70;99.90;;;;;;7392972;19;20162;-80
2024/01/16 10:57:56;;;;;;;0.20;0.20;;;4.80;99.90;;;;;;7394481;19;20138;-82
2024/01/16 11:00:24;;;;;;;0.40;0.40;;;4.70;99.90;;;;;;7395800;19;20134;-79
2024/01/16 11:03:07;;;;;;;3.27;1.43;;;4.50;99.90;;;;;;7392953;19;20150;-82
2024/01/16 11:05:35;;;;;;;0.90;0.37;;;4.00;99.90;;;;;;7389423;19;20192;-78
2024/01/16 11:08:01;;;;;;;0.50;0.50;;;4.00;99.90;;;;;;7395021;19;20261;-78
2024/01/16 11:10:28;;;;;;;0.73;0.67;;;4.30;99.90;;;;;;7392543;19;20139;-82
2024/01/16 11:12:55;;;;;;;0.40;0.40;;;4.50;99.90;;;;;;7393451;19;20149;-81
2024/01/16 11:15:21;;;;;;;2.10;0.93;;;4.60;99.90;;;;;;7395088;19;20165;-83
2024/01/16 11:17:49;;;;;;;1.23;0.70;;;4.80;99.90;;;;;;7399103;19;20611;-80
2024/01/16 11:20:16;;;;;;;0.47;0.47;;;4.20;99.90;;;;;;7394333;19;20134;-82
2024/01/16 11:22:45;;;;;;;0.83;0.77;;;4.10;99.90;;;;;;7393866;19;20150;-80
2024/01/16 11:25:16;;;;;;;1.17;0.67;;;4.30;99.90;;;;;;7395443;19;20629;-80
2024/01/16 11:27:42;;;;;;;0.50;0.50;;;4.40;99.90;;;;;;7397325;19;20525;-79
2024/01/16 11:30:11;;;;;;;1.27;1.03;;;4.80;99.90;;;;;;7399600;19;20135;-81
2024/01/16 11:32:41;;;;;;;0.47;0.47;;;4.90;99.90;;;;;;7393902;19;20823;-80
2024/01/16 11:35:07;;;;;;;1.43;0.70;;;5.00;99.90;;;;;;7393042;19;20175;-83
2024/01/16 11:37:37;;;;;;;0.53;0.43;;;4.90;99.90;;;;;;7393447;19;20292;-82
2024/01/16 11:40:21;;;;;;;0.30;0.30;;;4.90;99.90;;;;;;7393553;19;20202;-82
2024/01/16 11:42:55;;;;;;;0.70;0.70;;;4.90;99.90;;;;;;7396354;19;20160;-83
2024/01/16 11:45:27;;;;;;;0.30;0.30;;;4.90;99.90;;;;;;7395806;19;20595;-81
2024/01/16 11:48:12;;;;;;;0.43;0.43;;;4.50;99.90;;;;;;7400667;19;20146;-81
2024/01/16 11:50:38;;;;;;;0.47;0.43;;;4.70;99.90;;;;;;7391211;19;20165;-81
2024/01/16 11:53:04;;;;;;;0.83;0.83;;;5.00;99.90;;;;;;7391061;19;20158;-82
2024/01/16 11:55:37;;;;;;;0.33;0.33;;;4.80;99.90;;;;;;7399715;19;20142;-81
2024/01/16 11:58:41;;;;;;;0.40;0.40;;;4.80;99.90;;;;;;7394834;19;20154;-82
2024/01/16 12:01:08;;;;;;;1.17;0.43;;;4.60;99.90;;;;;;7403694;19;20483;-80
2024/01/16 12:03:34;;;;;;;1.03;0.80;;;4.90;99.90;;;;;;7401168;19;20511;-83
2024/01/16 12:06:01;;;;;;;0.30;0.30;;;5.20;99.90;;;;;;7394185;19;20172;-82
2024/01/16 12:08:28;;;;;;;0.37;0.37;;;5.50;99.90;;;;;;7394140;19;20603;-81
2024/01/16 12:10:54;;;;;;;0.30;0.30;;;5.40;99.90;;;;;;7393639;19;20168;-82
2024/01/16 12:13:20;;;;;;;0.20;0.20;;;5.60;99.90;;;;;;7391520;19;20151;-83
2024/01/16 12:15:48;;;;;;;0.53;0.50;;;5.70;99.90;;;;;;7392171;19;20142;-83
2024/01/16 12:18:20;;;;;;;0.40;0.40;;;5.80;99.90;;;;;;7390930;19;20866;-82
2024/01/16 12:20:46;;;;;;;0.20;0.20;;;5.90;99.90;;;;;;7398808;19;20473;-81
2024/01/16 12:23:13;;;;;;;0.97;0.70;;;5.90;99.90;;;;;;7404316;19;20161;-82
2024/01/16 12:25:39;;;;;;;0.20;0.20;;;6.00;99.90;;;;;;7391082;19;20146;-83
2024/01/16 12:28:06;;;;;;;0.20;0.20;;;6.00;99.90;;;;;;7400427;19;20143;-81
2024/01/16 12:30:34;;;;;;;0.47;0.47;;;6.10;99.90;;;;;;7392698;19;20345;-82
2024/01/16 12:33:07;;;;;;;0.43;0.30;;;6.10;99.90;;;;;;7390785;19;20142;-82
2024/01/16 12:35:40;;;;;;;0.37;0.37;;;6.20;99.90;;;;;;7393229;19;20142;-82
2024/01/16 12:38:11;;;;;;;0.20;0.20;;;6.20;99.90;;;;;;7391580;19;20157;-83
2024/01/16 12:40:51;;;;;;;0.67;0.60;;;6.30;99.90;;;;;;7392099;19;20131;-81
2024/01/16 12:43:20;;;;;;;0.50;0.50;;;6.50;99.90;;;;;;7392243;19;20135;-83
2024/01/16 12:45:45;;;;;;;0.40;0.40;;;6.50;99.90;;;;;;7390993;19;20185;-83
2024/01/16 12:48:11;;;;;;;0.37;0.37;;;6.60;99.90;;;;;;7393563;19;20504;-84
2024/01/16 12:50:37;;;;;;;0.50;0.47;;;6.50;99.10;;;;;;7390279;19;20177;-83
2024/01/16 12:53:05;;;;;;;0.40;0.30;;;6.80;99.30;;;;;;7391291;19;20656;-85
2024/01/16 12:55:33;;;;;;;0.30;0.30;;;6.80;98.80;;;;;;7392314;19;20142;-84